Time;durP1;ratioP1;P1;durP2;ratioP2;P2;SDS_P1;SDS_P2;PMS_P1;PMS_P2;Temp;Humidity;BMP_temperature;BMP_pressure;BME280_temperature;BME280_humidity;BME280_pressure;Samples;Min_cycle;Max_cycle;Signal;HPM_P1;HPM_P2
2023/12/05 00:00:02;;;;;;;12.70;8.40;;;;;;;;;;690559;28;912;-70
2023/12/05 00:00:32;;;;;;;12.82;8.95;;;;;;;;;;685773;28;687;-70
2023/12/05 00:00:53;;;;;;;11.70;8.70;;;;;;;;;;683623;28;1998;-69
2023/12/05 00:01:13;;;;;;;12.40;8.70;;;;;;;;;;684604;28;925;-69
2023/12/05 00:01:33;;;;;;;12.70;8.82;;;;;;;;;;684995;28;948;-67
2023/12/05 00:01:54;;;;;;;12.17;8.63;;;;;;;;;;684407;28;4499;-65
2023/12/05 00:02:14;;;;;;;11.87;8.10;;;;;;;;;;687186;28;854;-67
2023/12/05 00:02:34;;;;;;;13.18;8.50;;;;;;;;;;687150;28;900;-68
2023/12/05 00:02:55;;;;;;;13.27;8.90;;;;;;;;;;691622;28;920;-68
2023/12/05 00:03:15;;;;;;;12.57;8.68;;;;;;;;;;689085;28;913;-67
2023/12/05 00:03:35;;;;;;;12.97;8.40;;;;;;;;;;684571;28;1714;-67
2023/12/05 00:03:56;;;;;;;12.20;8.13;;;;;;;;;;686404;28;1198;-66
2023/12/05 00:04:16;;;;;;;11.55;8.13;;;;;;;;;;684352;28;901;-67
2023/12/05 00:04:37;;;;;;;11.53;8.50;;;;;;;;;;682817;28;1790;-66
2023/12/05 00:04:58;;;;;;;11.90;8.60;;;;;;;;;;683083;28;4380;-68
2023/12/05 00:05:18;;;;;;;12.43;8.60;;;;;;;;;;685980;28;806;-67
2023/12/05 00:05:39;;;;;;;12.13;8.70;;;;;;;;;;688518;28;2465;-67
2023/12/05 00:05:59;;;;;;;13.10;8.97;;;;;;;;;;689943;28;916;-67
2023/12/05 00:06:19;;;;;;;12.43;8.50;;;;;;;;;;690627;28;889;-66
2023/12/05 00:06:40;;;;;;;13.30;8.93;;;;;;;;;;689466;28;1973;-66
2023/12/05 00:07:01;;;;;;;12.45;8.50;;;;;;;;;;690280;28;765;-66
2023/12/05 00:07:23;;;;;;;12.65;8.88;;;;;;;;;;689728;28;1522;-66
2023/12/05 00:07:44;;;;;;;13.50;9.30;;;;;;;;;;688474;28;4267;-65
2023/12/05 00:08:05;;;;;;;11.32;7.88;;;;;;;;;;690010;28;912;-66
2023/12/05 00:08:26;;;;;;;12.48;8.43;;;;;;;;;;690453;28;916;-66
2023/12/05 00:08:48;;;;;;;13.40;9.13;;;;;;;;;;688883;28;2318;-65
2023/12/05 00:09:11;;;;;;;12.23;8.95;;;;;;;;;;689265;28;955;-67
2023/12/05 00:09:32;;;;;;;13.23;9.20;;;;;;;;;;690041;28;868;-66
2023/12/05 00:09:53;;;;;;;13.45;8.88;;;;;;;;;;688980;28;2110;-65
2023/12/05 00:10:14;;;;;;;13.30;8.85;;;;;;;;;;689871;28;806;-66
2023/12/05 00:10:34;;;;;;;12.77;8.98;;;;;;;;;;690361;28;856;-66
2023/12/05 00:10:55;;;;;;;12.18;8.77;;;;;;;;;;689512;28;4467;-65
2023/12/05 00:11:16;;;;;;;11.88;8.30;;;;;;;;;;690152;28;869;-65
2023/12/05 00:11:38;;;;;;;11.90;8.70;;;;;;;;;;688768;28;1481;-66
2023/12/05 00:11:58;;;;;;;13.50;9.05;;;;;;;;;;690380;28;885;-67
2023/12/05 00:12:19;;;;;;;13.07;8.83;;;;;;;;;;690366;28;928;-66
2023/12/05 00:12:39;;;;;;;13.10;9.17;;;;;;;;;;689650;28;1707;-66
2023/12/05 00:13:03;;;;;;;13.20;8.93;;;;;;;;;;690394;28;995;-66
2023/12/05 00:13:23;;;;;;;13.80;8.90;;;;;;;;;;690291;28;829;-66
2023/12/05 00:13:44;;;;;;;13.43;9.23;;;;;;;;;;688665;28;4292;-66
2023/12/05 00:14:04;;;;;;;12.93;9.00;;;;;;;;;;690631;28;944;-66
2023/12/05 00:14:24;;;;;;;12.77;8.87;;;;;;;;;;689857;28;869;-66
2023/12/05 00:14:44;;;;;;;12.97;8.80;;;;;;;;;;689459;28;1465;-67
2023/12/05 00:15:05;;;;;;;12.80;9.00;;;;;;;;;;689992;28;1363;-67
2023/12/05 00:15:25;;;;;;;11.07;8.23;;;;;;;;;;689815;28;932;-66
2023/12/05 00:15:46;;;;;;;11.73;8.50;;;;;;;;;;688861;28;2284;-67
2023/12/05 00:16:07;;;;;;;12.23;8.50;;;;;;;;;;690391;28;885;-66
2023/12/05 00:16:27;;;;;;;13.82;8.77;;;;;;;;;;690163;28;876;-67
2023/12/05 00:16:47;;;;;;;12.52;8.50;;;;;;;;;;688760;28;4439;-67
2023/12/05 00:17:08;;;;;;;12.37;8.50;;;;;;;;;;689840;28;857;-67
2023/12/05 00:17:28;;;;;;;13.40;9.23;;;;;;;;;;689886;28;968;-68
2023/12/05 00:17:48;;;;;;;13.52;9.05;;;;;;;;;;688713;28;2281;-67
2023/12/05 00:18:09;;;;;;;12.70;8.60;;;;;;;;;;690226;28;1020;-67
2023/12/05 00:18:29;;;;;;;12.80;8.70;;;;;;;;;;690027;28;947;-67
2023/12/05 00:18:50;;;;;;;14.25;9.18;;;;;;;;;;689400;28;1949;-67
2023/12/05 00:19:10;;;;;;;13.23;8.63;;;;;;;;;;690478;28;908;-66
2023/12/05 00:19:30;;;;;;;12.73;8.57;;;;;;;;;;690496;28;925;-69
2023/12/05 00:19:51;;;;;;;13.30;8.97;;;;;;;;;;689043;28;4669;-66
2023/12/05 00:20:11;;;;;;;12.32;8.50;;;;;;;;;;690105;28;817;-67
2023/12/05 00:20:31;;;;;;;12.53;8.80;;;;;;;;;;690063;28;781;-68
2023/12/05 00:20:52;;;;;;;12.77;8.63;;;;;;;;;;688735;28;2255;-66
2023/12/05 00:21:12;;;;;;;13.23;8.90;;;;;;;;;;690077;28;940;-67
2023/12/05 00:21:32;;;;;;;12.80;8.90;;;;;;;;;;690308;28;771;-66
2023/12/05 00:21:52;;;;;;;12.75;9.10;;;;;;;;;;689153;28;1902;-68
2023/12/05 00:22:13;;;;;;;12.63;8.50;;;;;;;;;;690538;28;975;-67
2023/12/05 00:22:33;;;;;;;11.87;8.07;;;;;;;;;;690992;28;1141;-68
2023/12/05 00:22:53;;;;;;;13.27;8.70;;;;;;;;;;688679;28;4426;-68
2023/12/05 00:23:14;;;;;;;12.50;9.03;;;;;;;;;;690545;28;909;-68
2023/12/05 00:23:34;;;;;;;11.97;8.73;;;;;;;;;;691617;28;1250;-68
2023/12/05 00:23:54;;;;;;;12.82;8.68;;;;;;;;;;689753;28;1899;-68
2023/12/05 00:24:14;;;;;;;13.40;8.83;;;;;;;;;;690186;28;781;-67
2023/12/05 00:24:35;;;;;;;12.87;8.47;;;;;;;;;;690131;28;1437;-67
2023/12/05 00:24:55;;;;;;;12.85;8.63;;;;;;;;;;688783;28;2073;-67
2023/12/05 00:25:15;;;;;;;13.40;9.13;;;;;;;;;;690295;28;986;-67
2023/12/05 00:25:36;;;;;;;12.73;9.25;;;;;;;;;;688974;28;1990;-67
2023/12/05 00:25:56;;;;;;;12.20;8.97;;;;;;;;;;686892;28;4312;-67
2023/12/05 00:26:16;;;;;;;12.70;8.87;;;;;;;;;;687593;28;861;-67
2023/12/05 00:26:37;;;;;;;12.48;8.55;;;;;;;;;;689021;28;2308;-67
2023/12/05 00:26:57;;;;;;;12.63;8.37;;;;;;;;;;689470;28;1910;-69
2023/12/05 00:27:17;;;;;;;11.70;8.27;;;;;;;;;;687599;28;1333;-67
2023/12/05 00:27:37;;;;;;;11.40;8.30;;;;;;;;;;686760;28;3002;-67
2023/12/05 00:27:57;;;;;;;12.27;8.70;;;;;;;;;;687612;28;861;-67
2023/12/05 00:28:18;;;;;;;11.30;8.43;;;;;;;;;;687125;28;991;-69
2023/12/05 00:28:38;;;;;;;11.05;8.00;;;;;;;;;;686579;28;1489;-66
2023/12/05 00:28:58;;;;;;;11.60;8.53;;;;;;;;;;686754;28;4306;-66
2023/12/05 00:29:18;;;;;;;12.17;8.50;;;;;;;;;;689896;28;822;-66
2023/12/05 00:29:39;;;;;;;12.87;8.63;;;;;;;;;;686060;28;1533;-68
2023/12/05 00:29:59;;;;;;;12.83;8.63;;;;;;;;;;686987;28;782;-70
2023/12/05 00:30:19;;;;;;;12.40;8.20;;;;;;;;;;685994;28;909;-67
2023/12/05 00:30:39;;;;;;;12.00;8.23;;;;;;;;;;685459;28;2276;-67
2023/12/05 00:31:00;;;;;;;12.35;8.35;;;;;;;;;;689563;28;837;-70
2023/12/05 00:31:20;;;;;;;12.97;8.53;;;;;;;;;;689368;28;944;-67
2023/12/05 00:31:41;;;;;;;13.30;8.93;;;;;;;;;;690473;28;4516;-68
2023/12/05 00:32:01;;;;;;;12.47;8.50;;;;;;;;;;690630;28;805;-68
2023/12/05 00:32:22;;;;;;;12.63;8.40;;;;;;;;;;689707;28;892;-68
2023/12/05 00:32:42;;;;;;;13.27;9.00;;;;;;;;;;690409;28;2422;-67
2023/12/05 00:33:03;;;;;;;12.80;9.10;;;;;;;;;;690575;28;987;-67
2023/12/05 00:33:23;;;;;;;12.17;8.87;;;;;;;;;;690062;28;802;-69
2023/12/05 00:33:43;;;;;;;12.20;8.57;;;;;;;;;;686544;28;1733;-69
2023/12/05 00:34:03;;;;;;;12.30;8.33;;;;;;;;;;687628;28;727;-67
2023/12/05 00:34:24;;;;;;;13.10;9.03;;;;;;;;;;687139;28;956;-67
2023/12/05 00:34:45;;;;;;;12.27;8.98;;;;;;;;;;684216;28;4601;-67
2023/12/05 00:35:06;;;;;;;11.93;8.60;;;;;;;;;;688490;28;857;-69
2023/12/05 00:35:26;;;;;;;12.02;8.43;;;;;;;;;;688544;28;807;-65
2023/12/05 00:35:46;;;;;;;11.90;8.70;;;;;;;;;;690628;28;1539;-67
2023/12/05 00:36:07;;;;;;;12.52;9.05;;;;;;;;;;691337;28;904;-67
2023/12/05 00:36:27;;;;;;;12.27;8.93;;;;;;;;;;690835;28;796;-68
2023/12/05 00:36:48;;;;;;;11.57;8.33;;;;;;;;;;689384;28;1920;-68
2023/12/05 00:37:08;;;;;;;12.43;8.55;;;;;;;;;;690207;28;905;-67
2023/12/05 00:37:28;;;;;;;13.20;8.90;;;;;;;;;;687356;28;893;-67
2023/12/05 00:37:48;;;;;;;13.10;8.68;;;;;;;;;;685688;28;4285;-66
2023/12/05 00:38:09;;;;;;;12.27;8.57;;;;;;;;;;687384;28;794;-67
2023/12/05 00:38:29;;;;;;;12.93;8.80;;;;;;;;;;684539;28;822;-68
2023/12/05 00:38:49;;;;;;;13.32;8.55;;;;;;;;;;684387;28;2496;-67
2023/12/05 00:39:09;;;;;;;13.00;8.57;;;;;;;;;;688482;28;1219;-68
2023/12/05 00:39:30;;;;;;;13.47;9.10;;;;;;;;;;687821;28;937;-68
2023/12/05 00:39:50;;;;;;;13.07;9.23;;;;;;;;;;687019;28;2569;-67
2023/12/05 00:40:10;;;;;;;14.27;9.40;;;;;;;;;;688698;28;865;-68
2023/12/05 00:40:31;;;;;;;16.40;9.67;;;;;;;;;;688189;28;1145;-70
2023/12/05 00:40:51;;;;;;;14.53;9.30;;;;;;;;;;688198;28;4459;-67
2023/12/05 00:41:11;;;;;;;13.00;9.17;;;;;;;;;;688996;28;941;-68
2023/12/05 00:41:31;;;;;;;12.43;8.97;;;;;;;;;;688442;28;865;-67
2023/12/05 00:41:52;;;;;;;13.23;8.63;;;;;;;;;;688587;28;2436;-67
2023/12/05 00:42:12;;;;;;;14.40;9.10;;;;;;;;;;688142;28;924;-67
2023/12/05 00:42:32;;;;;;;13.30;8.63;;;;;;;;;;688919;28;806;-67
2023/12/05 00:42:52;;;;;;;13.07;8.82;;;;;;;;;;688977;28;2014;-67
2023/12/05 00:43:13;;;;;;;12.60;9.10;;;;;;;;;;690461;28;877;-68
2023/12/05 00:43:33;;;;;;;12.50;8.60;;;;;;;;;;690428;28;790;-67
2023/12/05 00:43:53;;;;;;;13.43;8.80;;;;;;;;;;689209;28;4262;-68
2023/12/05 00:44:13;;;;;;;13.10;9.43;;;;;;;;;;690620;28;778;-67
2023/12/05 00:44:34;;;;;;;12.07;8.73;;;;;;;;;;690572;28;944;-69
2023/12/05 00:44:54;;;;;;;12.77;8.13;;;;;;;;;;689012;28;1446;-67
2023/12/05 00:45:14;;;;;;;12.50;8.47;;;;;;;;;;690318;28;869;-68
2023/12/05 00:45:34;;;;;;;12.60;8.43;;;;;;;;;;687702;28;1258;-69
2023/12/05 00:45:55;;;;;;;12.35;8.68;;;;;;;;;;684043;28;2819;-68
2023/12/05 00:46:16;;;;;;;14.07;8.80;;;;;;;;;;684762;28;925;-69
2023/12/05 00:46:36;;;;;;;14.20;8.83;;;;;;;;;;681482;28;4340;-69
2023/12/05 00:46:56;;;;;;;12.10;8.67;;;;;;;;;;683897;28;4698;-70
2023/12/05 00:47:16;;;;;;;11.90;8.20;;;;;;;;;;684958;28;850;-68
2023/12/05 00:47:36;;;;;;;13.03;8.47;;;;;;;;;;687475;28;889;-69
2023/12/05 00:47:57;;;;;;;12.87;8.80;;;;;;;;;;687190;28;836;-69
2023/12/05 00:48:17;;;;;;;13.37;9.30;;;;;;;;;;687713;28;909;-69
2023/12/05 00:48:38;;;;;;;12.47;8.70;;;;;;;;;;689252;28;1077;-68
2023/12/05 00:48:58;;;;;;;12.77;8.07;;;;;;;;;;690128;28;980;-68
2023/12/05 00:49:18;;;;;;;12.88;8.55;;;;;;;;;;690257;28;884;-67
2023/12/05 00:49:39;;;;;;;13.70;8.73;;;;;;;;;;689149;28;1982;-68
2023/12/05 00:49:59;;;;;;;14.35;9.20;;;;;;;;;;690682;28;4408;-68
2023/12/05 00:50:19;;;;;;;13.80;9.30;;;;;;;;;;689169;28;921;-68
2023/12/05 00:50:39;;;;;;;13.77;9.07;;;;;;;;;;689391;28;2677;-68
2023/12/05 00:51:00;;;;;;;12.77;8.95;;;;;;;;;;690164;28;894;-68
2023/12/05 00:51:20;;;;;;;11.97;8.63;;;;;;;;;;688725;28;1000;-67
2023/12/05 00:51:40;;;;;;;12.20;8.60;;;;;;;;;;689512;28;1833;-68
2023/12/05 00:52:01;;;;;;;12.07;8.65;;;;;;;;;;690467;28;861;-67
2023/12/05 00:52:21;;;;;;;12.50;8.73;;;;;;;;;;690316;28;892;-67
2023/12/05 00:52:42;;;;;;;12.57;8.60;;;;;;;;;;688677;28;4272;-68
2023/12/05 00:53:04;;;;;;;12.48;8.52;;;;;;;;;;691209;28;877;-67
2023/12/05 00:53:25;;;;;;;12.90;9.13;;;;;;;;;;688274;28;956;-65
2023/12/05 00:53:45;;;;;;;12.40;8.93;;;;;;;;;;690337;28;2426;-68
2023/12/05 00:54:05;;;;;;;12.60;9.18;;;;;;;;;;690330;28;877;-68
2023/12/05 00:54:25;;;;;;;12.57;8.67;;;;;;;;;;690336;28;790;-68
2023/12/05 00:54:46;;;;;;;12.97;8.60;;;;;;;;;;691418;28;1713;-65
2023/12/05 00:55:06;;;;;;;12.98;8.90;;;;;;;;;;692817;28;876;-68
2023/12/05 00:55:26;;;;;;;12.87;8.37;;;;;;;;;;692523;28;973;-67
2023/12/05 00:55:47;;;;;;;12.35;8.18;;;;;;;;;;691527;28;4259;-67
2023/12/05 00:56:10;;;;;;;12.30;8.20;;;;;;;;;;692789;28;1005;-68
2023/12/05 00:56:30;;;;;;;12.13;8.27;;;;;;;;;;690500;28;1046;-68
2023/12/05 00:56:51;;;;;;;12.00;8.40;;;;;;;;;;689583;28;1705;-66
2023/12/05 00:57:11;;;;;;;13.40;9.17;;;;;;;;;;690687;28;816;-67
2023/12/05 00:57:31;;;;;;;12.70;8.32;;;;;;;;;;689979;28;974;-68
2023/12/05 00:57:52;;;;;;;13.83;8.53;;;;;;;;;;689448;28;5967;-68
2023/12/05 00:58:12;;;;;;;13.60;8.87;;;;;;;;;;690857;28;1020;-67
2023/12/05 00:58:32;;;;;;;12.87;9.20;;;;;;;;;;690889;28;812;-68
2023/12/05 00:58:52;;;;;;;12.80;9.00;;;;;;;;;;689121;28;4466;-67
2023/12/05 00:59:13;;;;;;;13.23;8.90;;;;;;;;;;691072;28;828;-65
2023/12/05 00:59:33;;;;;;;12.50;8.90;;;;;;;;;;690347;28;900;-66
2023/12/05 00:59:53;;;;;;;11.87;8.50;;;;;;;;;;690125;28;2531;-67
2023/12/05 01:00:14;;;;;;;11.73;7.63;;;;;;;;;;690419;28;1191;-68
2023/12/05 01:00:34;;;;;;;10.63;7.65;;;;;;;;;;690514;28;860;-67
2023/12/05 01:00:54;;;;;;;11.93;8.50;;;;;;;;;;689583;28;1913;-67
2023/12/05 01:01:14;;;;;;;12.70;8.43;;;;;;;;;;690700;28;814;-68
2023/12/05 01:01:35;;;;;;;12.00;8.25;;;;;;;;;;689936;28;809;-65
2023/12/05 01:01:55;;;;;;;12.80;8.37;;;;;;;;;;689009;28;5118;-65
2023/12/05 01:02:15;;;;;;;11.97;8.53;;;;;;;;;;690685;28;801;-66
2023/12/05 01:02:35;;;;;;;12.10;8.60;;;;;;;;;;689554;28;809;-67
2023/12/05 01:02:56;;;;;;;11.93;8.40;;;;;;;;;;688139;28;2339;-67
2023/12/05 01:03:16;;;;;;;13.27;9.20;;;;;;;;;;691000;28;1096;-69
2023/12/05 01:03:36;;;;;;;13.45;8.93;;;;;;;;;;690707;28;908;-65
2023/12/05 01:03:56;;;;;;;12.67;8.80;;;;;;;;;;689495;28;1724;-68
2023/12/05 01:04:17;;;;;;;12.87;8.57;;;;;;;;;;690822;28;1029;-68
2023/12/05 01:04:37;;;;;;;12.57;8.73;;;;;;;;;;690968;28;924;-68
2023/12/05 01:04:58;;;;;;;13.43;9.10;;;;;;;;;;689090;28;4258;-67
2023/12/05 01:05:18;;;;;;;12.90;8.90;;;;;;;;;;691004;28;829;-68
2023/12/05 01:05:38;;;;;;;12.03;8.67;;;;;;;;;;689163;28;2229;-69
2023/12/05 01:05:58;;;;;;;11.87;8.50;;;;;;;;;;690418;28;889;-67
2023/12/05 01:06:19;;;;;;;13.10;8.75;;;;;;;;;;690832;28;1338;-67
2023/12/05 01:06:39;;;;;;;13.87;8.97;;;;;;;;;;689929;28;2048;-68
2023/12/05 01:06:59;;;;;;;12.63;9.00;;;;;;;;;;690500;28;1981;-68
2023/12/05 01:07:20;;;;;;;12.57;8.83;;;;;;;;;;690537;28;1425;-67
2023/12/05 01:07:41;;;;;;;13.27;8.57;;;;;;;;;;689203;28;4321;-68
2023/12/05 01:08:01;;;;;;;13.27;8.67;;;;;;;;;;690164;28;900;-69
2023/12/05 01:08:21;;;;;;;13.20;8.50;;;;;;;;;;693442;28;892;-69
2023/12/05 01:08:41;;;;;;;12.17;8.80;;;;;;;;;;689823;28;1473;-68
2023/12/05 01:09:02;;;;;;;13.57;8.80;;;;;;;;;;690626;28;947;-69
2023/12/05 01:09:22;;;;;;;14.55;9.50;;;;;;;;;;690751;28;904;-66
2023/12/05 01:09:43;;;;;;;12.60;9.00;;;;;;;;;;688977;28;2295;-67
2023/12/05 01:10:03;;;;;;;13.85;8.68;;;;;;;;;;690016;28;1232;-67
2023/12/05 01:10:24;;;;;;;13.83;8.60;;;;;;;;;;690728;28;936;-67
2023/12/05 01:10:44;;;;;;;12.93;9.13;;;;;;;;;;688152;28;4432;-67
2023/12/05 01:11:04;;;;;;;13.33;9.60;;;;;;;;;;689930;28;901;-68
2023/12/05 01:11:24;;;;;;;12.77;8.87;;;;;;;;;;686866;28;1189;-68
2023/12/05 01:11:45;;;;;;;12.85;8.55;;;;;;;;;;685961;28;2240;-69
2023/12/05 01:12:05;;;;;;;13.10;8.80;;;;;;;;;;687916;28;869;-67
2023/12/05 01:12:26;;;;;;;13.02;8.77;;;;;;;;;;688888;28;714;-67
2023/12/05 01:12:53;;;;;;;12.38;9.02;;;;;;;;;;689292;28;1712;-68
2023/12/05 01:13:13;;;;;;;11.90;8.30;;;;;;;;;;689721;28;995;-67
2023/12/05 01:13:33;;;;;;;12.50;8.53;;;;;;;;;;691038;28;896;-68
2023/12/05 01:13:53;;;;;;;13.27;8.85;;;;;;;;;;690504;28;4407;-66
2023/12/05 01:14:14;;;;;;;12.73;8.57;;;;;;;;;;690254;28;967;-67
2023/12/05 01:14:34;;;;;;;12.73;8.90;;;;;;;;;;690429;28;864;-69
2023/12/05 01:14:54;;;;;;;13.13;8.63;;;;;;;;;;689802;28;1625;-67
2023/12/05 01:15:15;;;;;;;13.93;9.23;;;;;;;;;;690410;28;1408;-68
2023/12/05 01:15:35;;;;;;;12.73;8.75;;;;;;;;;;690317;28;764;-67
2023/12/05 01:15:55;;;;;;;11.47;8.57;;;;;;;;;;689569;28;2507;-67
2023/12/05 01:16:16;;;;;;;12.00;8.50;;;;;;;;;;690838;28;809;-69
2023/12/05 01:16:40;;;;;;;11.90;8.50;;;;;;;;;;690516;28;987;-67
2023/12/05 01:17:01;;;;;;;12.75;8.40;;;;;;;;;;690061;28;4635;-66
2023/12/05 01:17:21;;;;;;;12.20;8.13;;;;;;;;;;690293;28;889;-68
2023/12/05 01:17:41;;;;;;;14.27;8.77;;;;;;;;;;686765;28;1048;-68
2023/12/05 01:18:02;;;;;;;13.57;8.97;;;;;;;;;;687685;28;1399;-68
2023/12/05 01:18:23;;;;;;;12.32;8.43;;;;;;;;;;688283;28;984;-68
2023/12/05 01:18:43;;;;;;;11.57;8.13;;;;;;;;;;689615;28;1579;-67
2023/12/05 01:19:03;;;;;;;12.27;8.70;;;;;;;;;;690601;28;908;-66
2023/12/05 01:19:24;;;;;;;12.90;8.70;;;;;;;;;;690682;28;920;-66
2023/12/05 01:19:44;;;;;;;12.83;8.73;;;;;;;;;;688696;28;4292;-66
2023/12/05 01:20:11;;;;;;;13.73;9.10;;;;;;;;;;688497;28;849;-66
2023/12/05 01:20:31;;;;;;;12.30;8.60;;;;;;;;;;690422;28;853;-68
2023/12/05 01:20:51;;;;;;;12.50;8.53;;;;;;;;;;689759;28;1707;-68
2023/12/05 01:21:11;;;;;;;12.43;8.57;;;;;;;;;;690532;28;876;-66
2023/12/05 01:21:32;;;;;;;12.50;8.45;;;;;;;;;;690745;28;865;-67
2023/12/05 01:21:52;;;;;;;12.33;8.53;;;;;;;;;;690659;28;1537;-67
2023/12/05 01:22:12;;;;;;;12.57;8.57;;;;;;;;;;690859;28;888;-68
2023/12/05 01:22:32;;;;;;;12.70;8.87;;;;;;;;;;690652;28;1284;-68
2023/12/05 01:22:53;;;;;;;13.35;9.25;;;;;;;;;;689805;28;5631;-67
2023/12/05 01:23:13;;;;;;;13.07;9.27;;;;;;;;;;691052;28;873;-66
2023/12/05 01:23:33;;;;;;;12.90;9.10;;;;;;;;;;690901;28;1127;-66
2023/12/05 01:23:53;;;;;;;12.60;8.50;;;;;;;;;;689799;28;2305;-68
2023/12/05 01:24:18;;;;;;;12.20;8.25;;;;;;;;;;690901;28;1432;-68
2023/12/05 01:24:39;;;;;;;12.87;8.73;;;;;;;;;;690502;28;1198;-68
2023/12/05 01:24:59;;;;;;;13.48;9.00;;;;;;;;;;689927;28;1654;-67
2023/12/05 01:25:20;;;;;;;13.10;8.53;;;;;;;;;;690349;28;971;-68
2023/12/05 01:25:40;;;;;;;12.52;8.45;;;;;;;;;;689081;28;4485;-68
2023/12/05 01:26:00;;;;;;;11.67;8.73;;;;;;;;;;690351;28;800;-68
2023/12/05 01:26:20;;;;;;;12.10;8.47;;;;;;;;;;690468;28;897;-68
2023/12/05 01:26:41;;;;;;;12.50;8.48;;;;;;;;;;689532;28;2468;-69
2023/12/05 01:27:02;;;;;;;12.13;8.50;;;;;;;;;;690455;28;1961;-68
2023/12/05 01:27:22;;;;;;;12.20;8.55;;;;;;;;;;690961;28;817;-67
2023/12/05 01:27:42;;;;;;;12.17;8.73;;;;;;;;;;689766;28;1839;-68
2023/12/05 01:28:03;;;;;;;12.38;8.38;;;;;;;;;;687362;28;1344;-67
2023/12/05 01:28:23;;;;;;;12.80;8.47;;;;;;;;;;688168;28;955;-68
2023/12/05 01:28:43;;;;;;;12.57;8.65;;;;;;;;;;686521;28;4529;-67
2023/12/05 01:29:05;;;;;;;11.67;8.20;;;;;;;;;;688597;28;786;-68
2023/12/05 01:29:25;;;;;;;12.38;8.57;;;;;;;;;;687884;28;972;-67
2023/12/05 01:29:45;;;;;;;11.90;8.68;;;;;;;;;;686840;28;1709;-69
2023/12/05 01:30:06;;;;;;;12.57;8.23;;;;;;;;;;690572;28;901;-66
2023/12/05 01:30:26;;;;;;;13.70;8.23;;;;;;;;;;690721;28;983;-70
2023/12/05 01:30:46;;;;;;;13.13;8.70;;;;;;;;;;689355;28;1846;-70
2023/12/05 01:31:07;;;;;;;12.83;8.70;;;;;;;;;;690371;28;833;-68
2023/12/05 01:31:27;;;;;;;12.23;8.40;;;;;;;;;;690741;28;940;-70
2023/12/05 01:31:47;;;;;;;12.47;8.50;;;;;;;;;;689150;28;4313;-70
2023/12/05 01:32:08;;;;;;;12.23;8.68;;;;;;;;;;690067;28;924;-70
2023/12/05 01:32:28;;;;;;;12.67;8.60;;;;;;;;;;691004;28;955;-71
2023/12/05 01:32:48;;;;;;;12.40;8.50;;;;;;;;;;689852;28;1756;-69
2023/12/05 01:33:08;;;;;;;12.07;8.27;;;;;;;;;;690475;28;929;-70
2023/12/05 01:33:29;;;;;;;12.27;8.10;;;;;;;;;;690385;28;869;-71
2023/12/05 01:33:49;;;;;;;11.77;7.97;;;;;;;;;;690835;28;1723;-66
2023/12/05 01:34:10;;;;;;;11.18;7.80;;;;;;;;;;691560;28;948;-67
2023/12/05 01:34:31;;;;;;;12.03;8.50;;;;;;;;;;690613;28;727;-68
2023/12/05 01:34:51;;;;;;;12.17;8.37;;;;;;;;;;688687;28;4419;-69
2023/12/05 01:35:11;;;;;;;13.50;8.65;;;;;;;;;;690865;28;886;-68
2023/12/05 01:35:31;;;;;;;12.27;8.47;;;;;;;;;;690510;28;856;-69
2023/12/05 01:35:51;;;;;;;11.07;8.20;;;;;;;;;;691022;28;2316;-68
2023/12/05 01:36:12;;;;;;;11.32;8.18;;;;;;;;;;690761;28;762;-68
2023/12/05 01:36:32;;;;;;;11.77;8.23;;;;;;;;;;690343;28;881;-68
2023/12/05 01:36:52;;;;;;;13.27;8.63;;;;;;;;;;688315;28;2235;-68
2023/12/05 01:37:13;;;;;;;14.02;8.95;;;;;;;;;;689005;28;945;-68
2023/12/05 01:37:33;;;;;;;12.97;8.70;;;;;;;;;;688898;28;1050;-69
2023/12/05 01:37:53;;;;;;;10.77;8.10;;;;;;;;;;687936;28;4301;-68
2023/12/05 01:38:13;;;;;;;11.70;8.33;;;;;;;;;;688923;28;849;-68
2023/12/05 01:38:34;;;;;;;11.70;8.30;;;;;;;;;;691742;28;953;-68
2023/12/05 01:38:55;;;;;;;12.03;8.33;;;;;;;;;;689691;28;2291;-69
2023/12/05 01:39:15;;;;;;;12.43;8.20;;;;;;;;;;691380;28;1260;-69
2023/12/05 01:39:35;;;;;;;12.07;8.07;;;;;;;;;;689822;28;1265;-67
2023/12/05 01:39:56;;;;;;;11.20;7.77;;;;;;;;;;691659;28;2212;-67
2023/12/05 01:40:16;;;;;;;11.07;7.78;;;;;;;;;;690749;28;873;-67
2023/12/05 01:40:37;;;;;;;11.50;8.17;;;;;;;;;;690025;28;830;-68
2023/12/05 01:40:57;;;;;;;11.85;8.05;;;;;;;;;;689031;28;4282;-69
2023/12/05 01:41:17;;;;;;;11.93;7.80;;;;;;;;;;690498;28;912;-68
2023/12/05 01:41:38;;;;;;;11.43;8.40;;;;;;;;;;690280;28;983;-69
2023/12/05 01:41:59;;;;;;;12.10;8.35;;;;;;;;;;690400;28;1556;-68
2023/12/05 01:42:20;;;;;;;11.52;8.43;;;;;;;;;;690843;28;1070;-66
2023/12/05 01:42:40;;;;;;;11.40;8.43;;;;;;;;;;690085;28;1049;-68
2023/12/05 01:43:00;;;;;;;11.67;8.53;;;;;;;;;;688079;28;3985;-68
2023/12/05 01:43:20;;;;;;;11.48;7.82;;;;;;;;;;684882;28;1343;-68
2023/12/05 01:43:41;;;;;;;11.97;8.00;;;;;;;;;;685814;28;4291;-70
2023/12/05 01:44:01;;;;;;;12.20;8.13;;;;;;;;;;687022;28;873;-68
2023/12/05 01:44:22;;;;;;;12.35;8.18;;;;;;;;;;687176;28;929;-68
2023/12/05 01:44:42;;;;;;;11.67;7.53;;;;;;;;;;684684;28;2974;-68
2023/12/05 01:45:04;;;;;;;11.10;8.10;;;;;;;;;;686774;28;928;-68
2023/12/05 01:45:24;;;;;;;11.15;7.95;;;;;;;;;;690410;28;1031;-67
2023/12/05 01:45:44;;;;;;;11.00;8.00;;;;;;;;;;689860;28;1915;-67
2023/12/05 01:46:05;;;;;;;11.10;8.07;;;;;;;;;;690801;28;928;-67
2023/12/05 01:46:25;;;;;;;11.20;7.85;;;;;;;;;;691083;28;821;-67
2023/12/05 01:46:46;;;;;;;12.00;8.50;;;;;;;;;;688785;28;4546;-68
2023/12/05 01:47:06;;;;;;;11.70;8.07;;;;;;;;;;689853;28;873;-68
2023/12/05 01:47:27;;;;;;;11.63;7.60;;;;;;;;;;689769;28;3327;-68
2023/12/05 01:47:48;;;;;;;11.53;7.93;;;;;;;;;;689409;28;1848;-67
2023/12/05 01:48:09;;;;;;;11.40;8.20;;;;;;;;;;690136;28;852;-68
2023/12/05 01:48:31;;;;;;;11.82;8.05;;;;;;;;;;690124;28;952;-70
2023/12/05 01:48:52;;;;;;;11.13;7.75;;;;;;;;;;689560;28;2211;-67
2023/12/05 01:49:12;;;;;;;12.00;8.17;;;;;;;;;;690241;28;932;-67
2023/12/05 01:49:33;;;;;;;11.73;8.07;;;;;;;;;;690107;28;901;-68
2023/12/05 01:49:53;;;;;;;11.38;8.07;;;;;;;;;;688261;28;4271;-69
2023/12/05 01:50:16;;;;;;;11.33;7.87;;;;;;;;;;689124;28;940;-69
2023/12/05 01:50:36;;;;;;;11.40;7.94;;;;;;;;;;690777;28;980;-68
2023/12/05 01:50:56;;;;;;;11.30;8.30;;;;;;;;;;689664;28;1741;-68
2023/12/05 01:51:17;;;;;;;12.30;8.23;;;;;;;;;;690508;28;936;-68
2023/12/05 01:51:37;;;;;;;12.60;8.35;;;;;;;;;;690300;28;952;-69
2023/12/05 01:51:58;;;;;;;12.00;8.37;;;;;;;;;;690459;28;1856;-69
2023/12/05 01:52:19;;;;;;;11.70;8.27;;;;;;;;;;690432;28;861;-68
2023/12/05 01:52:41;;;;;;;11.60;8.38;;;;;;;;;;691001;28;888;-67
2023/12/05 01:53:03;;;;;;;11.65;8.40;;;;;;;;;;690153;28;4630;-68
2023/12/05 01:53:23;;;;;;;10.88;8.07;;;;;;;;;;690053;28;963;-69
2023/12/05 01:53:44;;;;;;;11.13;8.23;;;;;;;;;;689707;28;1765;-67
2023/12/05 01:54:04;;;;;;;11.63;7.80;;;;;;;;;;691526;28;889;-68
2023/12/05 01:54:25;;;;;;;11.10;8.02;;;;;;;;;;690318;28;927;-68
2023/12/05 01:54:45;;;;;;;10.53;7.63;;;;;;;;;;690286;28;1997;-69
2023/12/05 01:55:06;;;;;;;10.88;7.85;;;;;;;;;;690863;28;1007;-68
2023/12/05 01:55:27;;;;;;;11.60;8.02;;;;;;;;;;689812;28;984;-67
2023/12/05 01:55:49;;;;;;;11.40;7.88;;;;;;;;;;688615;28;4557;-68
2023/12/05 01:56:10;;;;;;;11.23;7.82;;;;;;;;;;691019;28;1004;-68
2023/12/05 01:56:30;;;;;;;11.00;7.60;;;;;;;;;;690512;28;1124;-68
2023/12/05 01:56:51;;;;;;;11.07;7.80;;;;;;;;;;689798;28;1333;-68
2023/12/05 01:57:11;;;;;;;11.50;7.77;;;;;;;;;;690528;28;781;-68
2023/12/05 01:57:33;;;;;;;11.57;7.90;;;;;;;;;;690252;28;1011;-70
2023/12/05 01:57:53;;;;;;;11.55;7.82;;;;;;;;;;689671;28;5856;-68
2023/12/05 01:58:15;;;;;;;11.77;7.93;;;;;;;;;;690454;28;1105;-68
2023/12/05 01:58:36;;;;;;;11.00;7.57;;;;;;;;;;690139;28;947;-69
2023/12/05 01:58:57;;;;;;;10.95;8.00;;;;;;;;;;689989;28;4324;-67
2023/12/05 01:59:17;;;;;;;11.23;7.90;;;;;;;;;;687587;28;1510;-68
2023/12/05 01:59:37;;;;;;;10.97;7.97;;;;;;;;;;687526;28;833;-67
2023/12/05 01:59:57;;;;;;;11.60;7.73;;;;;;;;;;688976;28;2240;-68
2023/12/05 02:00:18;;;;;;;11.53;7.67;;;;;;;;;;690540;28;917;-67
2023/12/05 02:00:39;;;;;;;12.57;8.18;;;;;;;;;;690363;28;872;-68
2023/12/05 02:01:00;;;;;;;11.25;7.80;;;;;;;;;;690040;28;1891;-68
2023/12/05 02:01:20;;;;;;;12.10;8.23;;;;;;;;;;688652;28;952;-68
2023/12/05 02:01:41;;;;;;;12.07;8.40;;;;;;;;;;689100;28;4245;-69
2023/12/05 02:02:02;;;;;;;12.90;8.15;;;;;;;;;;687656;28;2236;-68
2023/12/05 02:02:22;;;;;;;12.40;8.30;;;;;;;;;;689304;28;885;-66
2023/12/05 02:02:42;;;;;;;11.10;7.47;;;;;;;;;;687975;28;1181;-69
2023/12/05 02:03:03;;;;;;;10.13;7.18;;;;;;;;;;689511;28;971;-66
2023/12/05 02:03:24;;;;;;;11.80;7.70;;;;;;;;;;690813;28;841;-70
2023/12/05 02:03:45;;;;;;;11.60;7.57;;;;;;;;;;689068;28;1283;-68
2023/12/05 02:04:06;;;;;;;11.32;7.45;;;;;;;;;;690076;28;984;-71
2023/12/05 02:04:26;;;;;;;11.40;8.17;;;;;;;;;;690564;28;915;-67
2023/12/05 02:04:47;;;;;;;11.23;8.07;;;;;;;;;;689377;28;5187;-66
2023/12/05 02:05:07;;;;;;;11.73;7.77;;;;;;;;;;691761;28;975;-66
2023/12/05 02:05:28;;;;;;;11.50;7.70;;;;;;;;;;688786;28;877;-68
2023/12/05 02:05:49;;;;;;;11.85;8.10;;;;;;;;;;690282;28;1721;-71